sensor_id;sensor_type;location;lat;lon;timestamp;P1;durP1;ratioP1;P2;durP2;ratioP2
54871;SDS011;43914;57.680;11.982;2024-02-21T00:01:41;41.50;;;6.40;;
54871;SDS011;43914;57.680;11.982;2024-02-21T00:04:07;34.10;;;5.60;;
54871;SDS011;43914;57.680;11.982;2024-02-21T00:06:32;38.40;;;6.00;;
54871;SDS011;43914;57.680;11.982;2024-02-21T00:08:58;38.30;;;6.30;;
54871;SDS011;43914;57.680;11.982;2024-02-21T00:11:23;39.40;;;6.20;;
54871;SDS011;43914;57.680;11.982;2024-02-21T00:13:49;34.00;;;5.80;;
54871;SDS011;43914;57.680;11.982;2024-02-21T00:16:16;40.00;;;7.70;;
54871;SDS011;43914;57.680;11.982;2024-02-21T00:18:45;38.50;;;7.00;;
54871;SDS011;43914;57.680;11.982;2024-02-21T00:21:10;36.10;;;6.10;;
54871;SDS011;43914;57.680;11.982;2024-02-21T00:23:40;41.90;;;7.00;;
54871;SDS011;43914;57.680;11.982;2024-02-21T00:26:06;48.60;;;7.00;;
54871;SDS011;43914;57.680;11.982;2024-02-21T00:28:32;36.10;;;6.50;;
54871;SDS011;43914;57.680;11.982;2024-02-21T00:30:58;39.90;;;6.40;;
54871;SDS011;43914;57.680;11.982;2024-02-21T00:33:23;39.10;;;7.00;;
54871;SDS011;43914;57.680;11.982;2024-02-21T00:35:49;43.50;;;6.80;;
54871;SDS011;43914;57.680;11.982;2024-02-21T00:38:14;39.60;;;6.60;;
54871;SDS011;43914;57.680;11.982;2024-02-21T00:40:39;40.00;;;6.10;;
54871;SDS011;43914;57.680;11.982;2024-02-21T00:43:05;42.20;;;6.30;;
54871;SDS011;43914;57.680;11.982;2024-02-21T00:45:30;28.00;;;5.50;;
54871;SDS011;43914;57.680;11.982;2024-02-21T00:47:56;27.70;;;5.00;;
54871;SDS011;43914;57.680;11.982;2024-02-21T00:50:21;39.60;;;5.80;;
54871;SDS011;43914;57.680;11.982;2024-02-21T00:52:47;32.30;;;5.40;;
54871;SDS011;43914;57.680;11.982;2024-02-21T00:55:13;21.00;;;4.90;;
54871;SDS011;43914;57.680;11.982;2024-02-21T00:57:39;31.40;;;5.00;;
54871;SDS011;43914;57.680;11.982;2024-02-21T01:00:04;32.90;;;5.80;;
54871;SDS011;43914;57.680;11.982;2024-02-21T01:02:30;23.40;;;4.70;;
54871;SDS011;43914;57.680;11.982;2024-02-21T01:05:00;28.40;;;5.60;;
54871;SDS011;43914;57.680;11.982;2024-02-21T01:07:25;22.60;;;5.10;;
54871;SDS011;43914;57.680;11.982;2024-02-21T01:09:51;25.50;;;5.60;;
54871;SDS011;43914;57.680;11.982;2024-02-21T01:12:16;30.10;;;6.30;;
54871;SDS011;43914;57.680;11.982;2024-02-21T01:14:42;28.90;;;5.00;;
54871;SDS011;43914;57.680;11.982;2024-02-21T01:17:08;34.10;;;6.60;;
54871;SDS011;43914;57.680;11.982;2024-02-21T01:19:33;30.60;;;4.80;;
54871;SDS011;43914;57.680;11.982;2024-02-21T01:21:59;30.60;;;5.00;;
54871;SDS011;43914;57.680;11.982;2024-02-21T01:24:24;32.40;;;5.50;;
54871;SDS011;43914;57.680;11.982;2024-02-21T01:26:50;29.20;;;5.20;;
54871;SDS011;43914;57.680;11.982;2024-02-21T01:29:15;31.00;;;5.80;;
54871;SDS011;43914;57.680;11.982;2024-02-21T01:31:40;28.30;;;5.70;;
54871;SDS011;43914;57.680;11.982;2024-02-21T01:34:06;25.60;;;5.00;;
54871;SDS011;43914;57.680;11.982;2024-02-21T01:36:31;18.30;;;4.60;;
54871;SDS011;43914;57.680;11.982;2024-02-21T01:38:57;21.10;;;4.50;;
54871;SDS011;43914;57.680;11.982;2024-02-21T01:41:23;24.10;;;5.10;;
54871;SDS011;43914;57.680;11.982;2024-02-21T01:43:48;21.10;;;4.40;;
54871;SDS011;43914;57.680;11.982;2024-02-21T01:46:14;18.50;;;3.90;;
54871;SDS011;43914;57.680;11.982;2024-02-21T01:48:39;17.30;;;3.50;;
54871;SDS011;43914;57.680;11.982;2024-02-21T01:51:05;18.60;;;3.80;;
54871;SDS011;43914;57.680;11.982;2024-02-21T01:53:33;18.70;;;3.60;;
54871;SDS011;43914;57.680;11.982;2024-02-21T01:56:02;16.70;;;3.90;;
54871;SDS011;43914;57.680;11.982;2024-02-21T01:58:27;15.80;;;3.20;;
54871;SDS011;43914;57.680;11.982;2024-02-21T02:00:54;14.00;;;3.80;;
54871;SDS011;43914;57.680;11.982;2024-02-21T02:03:22;14.20;;;3.30;;
54871;SDS011;43914;57.680;11.982;2024-02-21T02:05:50;16.70;;;4.00;;
54871;SDS011;43914;57.680;11.982;2024-02-21T02:08:17;16.40;;;4.50;;
54871;SDS011;43914;57.680;11.982;2024-02-21T02:10:44;16.50;;;3.90;;
54871;SDS011;43914;57.680;11.982;2024-02-21T02:13:11;13.70;;;3.60;;
54871;SDS011;43914;57.680;11.982;2024-02-21T02:15:40;12.50;;;3.50;;
54871;SDS011;43914;57.680;11.982;2024-02-21T02:18:07;14.00;;;3.70;;
54871;SDS011;43914;57.680;11.982;2024-02-21T02:20:33;14.40;;;3.80;;
54871;SDS011;43914;57.680;11.982;2024-02-21T02:22:59;15.40;;;4.00;;
54871;SDS011;43914;57.680;11.982;2024-02-21T02:25:25;20.00;;;4.80;;
54871;SDS011;43914;57.680;11.982;2024-02-21T02:27:51;11.90;;;3.90;;
54871;SDS011;43914;57.680;11.982;2024-02-21T02:30:17;19.40;;;5.20;;
54871;SDS011;43914;57.680;11.982;2024-02-21T02:32:45;20.10;;;4.20;;
54871;SDS011;43914;57.680;11.982;2024-02-21T02:35:11;16.20;;;4.80;;
54871;SDS011;43914;57.680;11.982;2024-02-21T02:37:37;12.50;;;4.40;;
54871;SDS011;43914;57.680;11.982;2024-02-21T02:40:05;15.60;;;4.50;;
54871;SDS011;43914;57.680;11.982;2024-02-21T02:42:31;21.80;;;5.00;;
54871;SDS011;43914;57.680;11.982;2024-02-21T02:44:57;14.80;;;4.80;;
54871;SDS011;43914;57.680;11.982;2024-02-21T02:47:22;23.10;;;6.50;;
54871;SDS011;43914;57.680;11.982;2024-02-21T02:49:48;23.50;;;6.40;;
54871;SDS011;43914;57.680;11.982;2024-02-21T02:52:16;16.20;;;4.70;;
54871;SDS011;43914;57.680;11.982;2024-02-21T02:54:43;15.10;;;5.20;;
54871;SDS011;43914;57.680;11.982;2024-02-21T02:57:08;14.60;;;4.70;;
54871;SDS011;43914;57.680;11.982;2024-02-21T02:59:35;17.80;;;4.60;;
54871;SDS011;43914;57.680;11.982;2024-02-21T03:02:00;18.10;;;5.50;;
54871;SDS011;43914;57.680;11.982;2024-02-21T03:04:26;17.40;;;5.10;;
54871;SDS011;43914;57.680;11.982;2024-02-21T03:06:51;17.30;;;5.10;;
54871;SDS011;43914;57.680;11.982;2024-02-21T03:09:17;18.30;;;5.40;;
54871;SDS011;43914;57.680;11.982;2024-02-21T03:11:42;20.00;;;5.90;;
54871;SDS011;43914;57.680;11.982;2024-02-21T03:14:09;19.30;;;5.50;;
54871;SDS011;43914;57.680;11.982;2024-02-21T03:16:35;16.40;;;5.20;;
54871;SDS011;43914;57.680;11.982;2024-02-21T03:19:01;14.60;;;4.60;;
54871;SDS011;43914;57.680;11.982;2024-02-21T03:21:26;17.30;;;5.20;;
54871;SDS011;43914;57.680;11.982;2024-02-21T03:23:52;17.50;;;4.70;;
54871;SDS011;43914;57.680;11.982;2024-02-21T03:26:17;14.90;;;4.30;;
54871;SDS011;43914;57.680;11.982;2024-02-21T03:28:43;12.20;;;3.80;;
54871;SDS011;43914;57.680;11.982;2024-02-21T03:31:12;14.10;;;4.20;;
54871;SDS011;43914;57.680;11.982;2024-02-21T03:33:42;12.70;;;3.90;;
54871;SDS011;43914;57.680;11.982;2024-02-21T03:36:14;13.10;;;3.50;;
54871;SDS011;43914;57.680;11.982;2024-02-21T03:38:40;10.20;;;2.50;;
54871;SDS011;43914;57.680;11.982;2024-02-21T03:41:06;8.40;;;2.40;;
54871;SDS011;43914;57.680;11.982;2024-02-21T03:43:31;6.40;;;1.90;;
54871;SDS011;43914;57.680;11.982;2024-02-21T03:45:57;6.70;;;1.90;;
54871;SDS011;43914;57.680;11.982;2024-02-21T03:48:22;7.80;;;1.80;;
54871;SDS011;43914;57.680;11.982;2024-02-21T03:50:47;8.00;;;1.50;;
54871;SDS011;43914;57.680;11.982;2024-02-21T03:53:13;6.40;;;1.50;;
54871;SDS011;43914;57.680;11.982;2024-02-21T03:55:38;7.00;;;1.60;;
54871;SDS011;43914;57.680;11.982;2024-02-21T03:58:04;6.00;;;1.40;;
54871;SDS011;43914;57.680;11.982;2024-02-21T04:00:29;6.70;;;1.50;;
54871;SDS011;43914;57.680;11.982;2024-02-21T04:02:55;8.10;;;1.40;;
54871;SDS011;43914;57.680;11.982;2024-02-21T04:05:21;5.50;;;1.30;;
54871;SDS011;43914;57.680;11.982;2024-02-21T04:07:46;4.30;;;1.30;;
54871;SDS011;43914;57.680;11.982;2024-02-21T04:10:12;4.60;;;1.40;;
54871;SDS011;43914;57.680;11.982;2024-02-21T04:12:37;4.40;;;1.30;;
54871;SDS011;43914;57.680;11.982;2024-02-21T04:15:03;5.80;;;1.80;;
54871;SDS011;43914;57.680;11.982;2024-02-21T04:17:29;6.00;;;1.70;;
54871;SDS011;43914;57.680;11.982;2024-02-21T04:20:01;6.30;;;1.70;;
54871;SDS011;43914;57.680;11.982;2024-02-21T04:22:30;6.60;;;2.00;;
54871;SDS011;43914;57.680;11.982;2024-02-21T04:24:59;7.70;;;1.90;;
54871;SDS011;43914;57.680;11.982;2024-02-21T04:27:25;6.40;;;1.90;;
54871;SDS011;43914;57.680;11.982;2024-02-21T04:29:50;6.60;;;2.40;;
54871;SDS011;43914;57.680;11.982;2024-02-21T04:32:16;7.20;;;2.30;;
54871;SDS011;43914;57.680;11.982;2024-02-21T04:34:41;7.00;;;2.30;;
54871;SDS011;43914;57.680;11.982;2024-02-21T04:37:07;6.40;;;1.90;;
54871;SDS011;43914;57.680;11.982;2024-02-21T04:39:32;6.90;;;2.20;;
54871;SDS011;43914;57.680;11.982;2024-02-21T04:41:58;7.30;;;2.30;;
54871;SDS011;43914;57.680;11.982;2024-02-21T04:44:23;7.90;;;2.70;;
54871;SDS011;43914;57.680;11.982;2024-02-21T04:46:48;7.50;;;2.70;;
54871;SDS011;43914;57.680;11.982;2024-02-21T04:49:14;7.60;;;2.70;;
54871;SDS011;43914;57.680;11.982;2024-02-21T04:51:40;9.20;;;3.20;;
54871;SDS011;43914;57.680;11.982;2024-02-21T04:54:06;11.10;;;3.70;;
54871;SDS011;43914;57.680;11.982;2024-02-21T04:56:31;10.20;;;3.40;;
54871;SDS011;43914;57.680;11.982;2024-02-21T04:58:57;8.60;;;2.90;;
54871;SDS011;43914;57.680;11.982;2024-02-21T05:01:22;8.60;;;2.90;;
54871;SDS011;43914;57.680;11.982;2024-02-21T05:03:48;11.60;;;2.90;;
54871;SDS011;43914;57.680;11.982;2024-02-21T05:06:13;9.00;;;2.90;;
54871;SDS011;43914;57.680;11.982;2024-02-21T05:08:39;9.00;;;3.10;;
54871;SDS011;43914;57.680;11.982;2024-02-21T05:11:05;9.30;;;2.80;;
54871;SDS011;43914;57.680;11.982;2024-02-21T05:13:31;9.40;;;2.60;;
54871;SDS011;43914;57.680;11.982;2024-02-21T05:15:56;8.40;;;2.50;;
54871;SDS011;43914;57.680;11.982;2024-02-21T05:18:22;10.00;;;2.60;;
54871;SDS011;43914;57.680;11.982;2024-02-21T05:20:47;9.30;;;2.40;;
54871;SDS011;43914;57.680;11.982;2024-02-21T05:23:13;11.80;;;2.90;;
54871;SDS011;43914;57.680;11.982;2024-02-21T05:25:38;11.50;;;3.00;;
54871;SDS011;43914;57.680;11.982;2024-02-21T05:28:04;7.70;;;2.00;;
54871;SDS011;43914;57.680;11.982;2024-02-21T05:30:31;11.20;;;2.30;;
54871;SDS011;43914;57.680;11.982;2024-02-21T05:32:56;9.50;;;2.40;;
54871;SDS011;43914;57.680;11.982;2024-02-21T05:35:26;10.80;;;2.40;;
54871;SDS011;43914;57.680;11.982;2024-02-21T05:37:52;6.60;;;1.80;;
54871;SDS011;43914;57.680;11.982;2024-02-21T05:40:18;9.00;;;2.00;;
54871;SDS011;43914;57.680;11.982;2024-02-21T05:42:45;9.90;;;2.30;;
54871;SDS011;43914;57.680;11.982;2024-02-21T05:45:10;11.80;;;2.00;;
54871;SDS011;43914;57.680;11.982;2024-02-21T05:47:36;9.20;;;1.80;;
54871;SDS011;43914;57.680;11.982;2024-02-21T05:50:02;7.70;;;2.00;;
54871;SDS011;43914;57.680;11.982;2024-02-21T05:52:27;6.40;;;1.70;;
54871;SDS011;43914;57.680;11.982;2024-02-21T05:54:53;12.50;;;1.90;;
54871;SDS011;43914;57.680;11.982;2024-02-21T05:57:18;5.20;;;1.20;;
54871;SDS011;43914;57.680;11.982;2024-02-21T05:59:44;10.10;;;1.90;;
54871;SDS011;43914;57.680;11.982;2024-02-21T06:02:09;11.00;;;1.90;;
54871;SDS011;43914;57.680;11.982;2024-02-21T06:04:35;10.10;;;1.90;;
54871;SDS011;43914;57.680;11.982;2024-02-21T06:07:01;11.20;;;1.90;;
54871;SDS011;43914;57.680;11.982;2024-02-21T06:09:27;9.60;;;2.00;;
54871;SDS011;43914;57.680;11.982;2024-02-21T06:11:53;15.30;;;2.60;;
54871;SDS011;43914;57.680;11.982;2024-02-21T06:14:21;8.50;;;2.00;;
54871;SDS011;43914;57.680;11.982;2024-02-21T06:16:47;10.30;;;2.30;;
54871;SDS011;43914;57.680;11.982;2024-02-21T06:19:12;12.80;;;2.70;;
54871;SDS011;43914;57.680;11.982;2024-02-21T06:21:38;10.20;;;2.50;;
54871;SDS011;43914;57.680;11.982;2024-02-21T06:24:03;10.10;;;3.10;;
54871;SDS011;43914;57.680;11.982;2024-02-21T06:26:29;9.90;;;2.80;;
54871;SDS011;43914;57.680;11.982;2024-02-21T06:28:55;11.00;;;3.20;;
54871;SDS011;43914;57.680;11.982;2024-02-21T06:31:20;9.30;;;2.60;;
54871;SDS011;43914;57.680;11.982;2024-02-21T06:33:45;10.50;;;3.20;;
54871;SDS011;43914;57.680;11.982;2024-02-21T06:36:11;14.90;;;2.30;;
54871;SDS011;43914;57.680;11.982;2024-02-21T06:38:36;10.90;;;2.10;;
54871;SDS011;43914;57.680;11.982;2024-02-21T06:41:02;8.00;;;1.80;;
54871;SDS011;43914;57.680;11.982;2024-02-21T06:43:27;7.30;;;1.60;;
54871;SDS011;43914;57.680;11.982;2024-02-21T06:45:53;4.90;;;1.50;;
54871;SDS011;43914;57.680;11.982;2024-02-21T06:48:20;6.20;;;1.30;;
54871;SDS011;43914;57.680;11.982;2024-02-21T06:50:45;6.50;;;1.30;;
54871;SDS011;43914;57.680;11.982;2024-02-21T06:53:11;7.60;;;1.20;;
54871;SDS011;43914;57.680;11.982;2024-02-21T06:55:37;6.50;;;1.30;;
54871;SDS011;43914;57.680;11.982;2024-02-21T06:58:02;9.20;;;1.50;;
54871;SDS011;43914;57.680;11.982;2024-02-21T07:00:28;4.90;;;1.30;;
54871;SDS011;43914;57.680;11.982;2024-02-21T07:02:54;5.30;;;1.20;;
54871;SDS011;43914;57.680;11.982;2024-02-21T07:05:20;4.90;;;1.20;;
54871;SDS011;43914;57.680;11.982;2024-02-21T07:07:45;5.60;;;1.30;;
54871;SDS011;43914;57.680;11.982;2024-02-21T07:10:11;4.10;;;1.00;;
54871;SDS011;43914;57.680;11.982;2024-02-21T07:12:36;4.40;;;1.10;;
54871;SDS011;43914;57.680;11.982;2024-02-21T07:15:07;5.30;;;1.20;;
54871;SDS011;43914;57.680;11.982;2024-02-21T07:17:32;5.20;;;1.10;;
54871;SDS011;43914;57.680;11.982;2024-02-21T07:19:58;6.80;;;0.80;;
54871;SDS011;43914;57.680;11.982;2024-02-21T07:22:24;3.60;;;1.00;;
54871;SDS011;43914;57.680;11.982;2024-02-21T07:24:58;2.50;;;0.80;;
54871;SDS011;43914;57.680;11.982;2024-02-21T07:27:23;4.40;;;1.00;;
54871;SDS011;43914;57.680;11.982;2024-02-21T07:29:53;3.20;;;0.90;;
54871;SDS011;43914;57.680;11.982;2024-02-21T07:32:19;4.40;;;1.30;;
54871;SDS011;43914;57.680;11.982;2024-02-21T07:34:44;7.00;;;1.30;;
54871;SDS011;43914;57.680;11.982;2024-02-21T07:37:11;4.50;;;1.20;;
54871;SDS011;43914;57.680;11.982;2024-02-21T07:39:36;4.30;;;1.40;;
54871;SDS011;43914;57.680;11.982;2024-02-21T07:42:04;5.00;;;1.50;;
54871;SDS011;43914;57.680;11.982;2024-02-21T07:44:30;8.60;;;1.50;;
54871;SDS011;43914;57.680;11.982;2024-02-21T07:46:57;5.10;;;1.70;;
54871;SDS011;43914;57.680;11.982;2024-02-21T07:49:23;5.20;;;1.70;;
54871;SDS011;43914;57.680;11.982;2024-02-21T07:51:48;7.10;;;1.50;;
54871;SDS011;43914;57.680;11.982;2024-02-21T07:54:15;11.70;;;2.50;;
54871;SDS011;43914;57.680;11.982;2024-02-21T07:56:40;10.80;;;2.50;;
54871;SDS011;43914;57.680;11.982;2024-02-21T07:59:06;8.60;;;2.10;;
54871;SDS011;43914;57.680;11.982;2024-02-21T08:01:33;9.90;;;1.90;;
54871;SDS011;43914;57.680;11.982;2024-02-21T08:03:58;8.90;;;2.20;;
54871;SDS011;43914;57.680;11.982;2024-02-21T08:06:24;7.20;;;1.90;;
54871;SDS011;43914;57.680;11.982;2024-02-21T08:08:50;5.90;;;1.50;;
54871;SDS011;43914;57.680;11.982;2024-02-21T08:11:15;12.10;;;1.80;;
54871;SDS011;43914;57.680;11.982;2024-02-21T08:13:40;9.40;;;1.70;;
54871;SDS011;43914;57.680;11.982;2024-02-21T08:16:06;6.50;;;1.30;;
54871;SDS011;43914;57.680;11.982;2024-02-21T08:18:31;12.40;;;1.40;;
54871;SDS011;43914;57.680;11.982;2024-02-21T08:20:59;52.60;;;3.10;;
54871;SDS011;43914;57.680;11.982;2024-02-21T08:23:24;6.30;;;1.50;;
54871;SDS011;43914;57.680;11.982;2024-02-21T08:25:50;11.10;;;1.40;;
54871;SDS011;43914;57.680;11.982;2024-02-21T08:28:15;18.50;;;1.80;;
54871;SDS011;43914;57.680;11.982;2024-02-21T08:30:40;8.60;;;1.40;;
54871;SDS011;43914;57.680;11.982;2024-02-21T08:33:12;18.30;;;2.10;;
54871;SDS011;43914;57.680;11.982;2024-02-21T08:35:41;24.20;;;2.40;;
54871;SDS011;43914;57.680;11.982;2024-02-21T08:38:06;21.90;;;2.40;;
54871;SDS011;43914;57.680;11.982;2024-02-21T08:40:31;6.80;;;2.30;;
54871;SDS011;43914;57.680;11.982;2024-02-21T08:43:00;20.70;;;3.80;;
54871;SDS011;43914;57.680;11.982;2024-02-21T08:45:26;12.60;;;3.40;;
54871;SDS011;43914;57.680;11.982;2024-02-21T08:47:51;10.90;;;3.20;;
54871;SDS011;43914;57.680;11.982;2024-02-21T08:50:17;8.30;;;2.70;;
54871;SDS011;43914;57.680;11.982;2024-02-21T08:52:42;7.20;;;2.40;;
54871;SDS011;43914;57.680;11.982;2024-02-21T08:55:08;6.00;;;2.00;;
54871;SDS011;43914;57.680;11.982;2024-02-21T08:57:34;5.70;;;1.90;;
54871;SDS011;43914;57.680;11.982;2024-02-21T09:00:04;5.20;;;1.50;;
54871;SDS011;43914;57.680;11.982;2024-02-21T09:02:41;3.50;;;1.10;;
54871;SDS011;43914;57.680;11.982;2024-02-21T09:05:10;3.20;;;1.10;;
54871;SDS011;43914;57.680;11.982;2024-02-21T09:07:36;3.30;;;1.00;;
54871;SDS011;43914;57.680;11.982;2024-02-21T09:10:01;3.00;;;1.00;;
54871;SDS011;43914;57.680;11.982;2024-02-21T09:12:28;4.00;;;1.00;;
54871;SDS011;43914;57.680;11.982;2024-02-21T09:14:54;2.90;;;1.00;;
54871;SDS011;43914;57.680;11.982;2024-02-21T09:17:20;3.40;;;1.00;;
54871;SDS011;43914;57.680;11.982;2024-02-21T09:19:50;3.40;;;1.00;;
54871;SDS011;43914;57.680;11.982;2024-02-21T09:22:15;2.80;;;0.90;;
54871;SDS011;43914;57.680;11.982;2024-02-21T09:24:41;16.40;;;1.80;;
54871;SDS011;43914;57.680;11.982;2024-02-21T09:27:06;10.50;;;1.50;;
54871;SDS011;43914;57.680;11.982;2024-02-21T09:29:32;5.50;;;1.60;;
54871;SDS011;43914;57.680;11.982;2024-02-21T09:32:01;26.70;;;2.50;;
54871;SDS011;43914;57.680;11.982;2024-02-21T09:34:28;21.00;;;2.40;;
54871;SDS011;43914;57.680;11.982;2024-02-21T09:36:54;22.30;;;2.20;;
54871;SDS011;43914;57.680;11.982;2024-02-21T09:39:19;42.20;;;2.30;;
54871;SDS011;43914;57.680;11.982;2024-02-21T09:41:50;16.00;;;2.30;;
54871;SDS011;43914;57.680;11.982;2024-02-21T09:44:20;23.20;;;1.70;;
54871;SDS011;43914;57.680;11.982;2024-02-21T09:49:32;47.90;;;2.30;;
54871;SDS011;43914;57.680;11.982;2024-02-21T09:52:02;6.80;;;1.90;;
54871;SDS011;43914;57.680;11.982;2024-02-21T09:54:30;10.60;;;1.60;;
54871;SDS011;43914;57.680;11.982;2024-02-21T09:56:59;17.00;;;2.00;;
54871;SDS011;43914;57.680;11.982;2024-02-21T09:59:26;21.40;;;2.10;;
54871;SDS011;43914;57.680;11.982;2024-02-21T10:01:53;7.50;;;1.90;;
54871;SDS011;43914;57.680;11.982;2024-02-21T10:04:19;11.80;;;1.70;;
54871;SDS011;43914;57.680;11.982;2024-02-21T10:06:45;9.30;;;1.90;;
54871;SDS011;43914;57.680;11.982;2024-02-21T10:09:23;47.40;;;2.80;;
54871;SDS011;43914;57.680;11.982;2024-02-21T10:11:52;22.00;;;2.10;;
54871;SDS011;43914;57.680;11.982;2024-02-21T10:14:20;22.10;;;2.00;;
54871;SDS011;43914;57.680;11.982;2024-02-21T10:16:48;8.50;;;2.00;;
54871;SDS011;43914;57.680;11.982;2024-02-21T10:19:24;24.40;;;2.50;;
54871;SDS011;43914;57.680;11.982;2024-02-21T10:22:00;10.20;;;2.10;;
54871;SDS011;43914;57.680;11.982;2024-02-21T10:24:30;29.40;;;2.90;;
54871;SDS011;43914;57.680;11.982;2024-02-21T10:27:03;9.10;;;3.00;;
54871;SDS011;43914;57.680;11.982;2024-02-21T10:29:43;10.00;;;2.30;;
54871;SDS011;43914;57.680;11.982;2024-02-21T10:32:15;9.40;;;2.80;;
54871;SDS011;43914;57.680;11.982;2024-02-21T10:34:41;7.30;;;2.40;;
54871;SDS011;43914;57.680;11.982;2024-02-21T10:37:08;6.30;;;2.00;;
54871;SDS011;43914;57.680;11.982;2024-02-21T10:39:38;5.80;;;1.70;;
54871;SDS011;43914;57.680;11.982;2024-02-21T10:42:05;4.30;;;1.50;;
54871;SDS011;43914;57.680;11.982;2024-02-21T10:44:31;8.20;;;1.60;;
54871;SDS011;43914;57.680;11.982;2024-02-21T10:46:58;14.00;;;1.40;;
54871;SDS011;43914;57.680;11.982;2024-02-21T10:49:26;7.50;;;1.20;;
54871;SDS011;43914;57.680;11.982;2024-02-21T10:57:02;21.60;;;1.60;;
54871;SDS011;43914;57.680;11.982;2024-02-21T10:59:29;19.40;;;2.00;;
54871;SDS011;43914;57.680;11.982;2024-02-21T11:01:57;70.10;;;3.60;;
54871;SDS011;43914;57.680;11.982;2024-02-21T11:04:23;85.80;;;4.30;;
54871;SDS011;43914;57.680;11.982;2024-02-21T11:06:51;101.30;;;4.40;;
54871;SDS011;43914;57.680;11.982;2024-02-21T11:09:17;151.20;;;5.50;;
54871;SDS011;43914;57.680;11.982;2024-02-21T11:11:45;30.00;;;3.90;;
54871;SDS011;43914;57.680;11.982;2024-02-21T11:14:17;115.20;;;5.80;;
54871;SDS011;43914;57.680;11.982;2024-02-21T11:16:43;8.90;;;3.50;;
54871;SDS011;43914;57.680;11.982;2024-02-21T11:19:30;31.90;;;5.10;;
54871;SDS011;43914;57.680;11.982;2024-02-21T11:21:57;15.10;;;4.00;;
54871;SDS011;43914;57.680;11.982;2024-02-21T11:24:30;8.40;;;3.20;;
54871;SDS011;43914;57.680;11.982;2024-02-21T11:30:03;12.30;;;3.50;;
54871;SDS011;43914;57.680;11.982;2024-02-21T11:32:29;9.60;;;3.60;;
54871;SDS011;43914;57.680;11.982;2024-02-21T11:34:56;12.00;;;3.40;;
54871;SDS011;43914;57.680;11.982;2024-02-21T11:37:26;9.20;;;3.50;;
54871;SDS011;43914;57.680;11.982;2024-02-21T11:39:53;11.10;;;3.80;;
54871;SDS011;43914;57.680;11.982;2024-02-21T11:42:22;9.90;;;4.20;;
54871;SDS011;43914;57.680;11.982;2024-02-21T11:44:50;10.60;;;4.00;;
54871;SDS011;43914;57.680;11.982;2024-02-21T11:47:15;11.60;;;4.40;;
54871;SDS011;43914;57.680;11.982;2024-02-21T11:49:46;10.40;;;4.20;;
54871;SDS011;43914;57.680;11.982;2024-02-21T11:52:14;13.10;;;4.40;;
54871;SDS011;43914;57.680;11.982;2024-02-21T11:54:44;14.80;;;4.90;;
54871;SDS011;43914;57.680;11.982;2024-02-21T11:57:10;13.10;;;4.70;;
54871;SDS011;43914;57.680;11.982;2024-02-21T11:59:39;13.40;;;4.80;;
54871;SDS011;43914;57.680;11.982;2024-02-21T12:02:05;14.60;;;4.20;;
54871;SDS011;43914;57.680;11.982;2024-02-21T12:04:31;11.50;;;4.40;;
54871;SDS011;43914;57.680;11.982;2024-02-21T12:06:57;11.90;;;4.30;;
54871;SDS011;43914;57.680;11.982;2024-02-21T12:09:24;12.00;;;4.60;;
54871;SDS011;43914;57.680;11.982;2024-02-21T12:12:03;10.60;;;4.00;;
54871;SDS011;43914;57.680;11.982;2024-02-21T12:14:31;11.50;;;4.60;;
54871;SDS011;43914;57.680;11.982;2024-02-21T12:16:58;11.10;;;4.10;;
54871;SDS011;43914;57.680;11.982;2024-02-21T12:19:25;13.80;;;5.00;;
54871;SDS011;43914;57.680;11.982;2024-02-21T12:21:51;9.70;;;4.00;;
54871;SDS011;43914;57.680;11.982;2024-02-21T12:24:20;12.40;;;4.40;;
54871;SDS011;43914;57.680;11.982;2024-02-21T12:26:48;12.70;;;4.30;;
54871;SDS011;43914;57.680;11.982;2024-02-21T12:29:17;13.70;;;4.40;;
54871;SDS011;43914;57.680;11.982;2024-02-21T12:31:46;12.80;;;4.70;;
54871;SDS011;43914;57.680;11.982;2024-02-21T12:34:13;14.40;;;5.30;;
54871;SDS011;43914;57.680;11.982;2024-02-21T12:36:43;13.30;;;4.80;;
54871;SDS011;43914;57.680;11.982;2024-02-21T12:39:09;10.40;;;4.40;;
54871;SDS011;43914;57.680;11.982;2024-02-21T12:41:36;9.80;;;4.50;;
54871;SDS011;43914;57.680;11.982;2024-02-21T12:44:06;13.10;;;5.00;;
54871;SDS011;43914;57.680;11.982;2024-02-21T12:46:35;10.80;;;4.70;;
54871;SDS011;43914;57.680;11.982;2024-02-21T12:49:01;13.50;;;4.70;;
54871;SDS011;43914;57.680;11.982;2024-02-21T12:51:28;14.60;;;5.40;;
54871;SDS011;43914;57.680;11.982;2024-02-21T12:53:54;13.10;;;5.10;;
54871;SDS011;43914;57.680;11.982;2024-02-21T12:56:20;13.10;;;4.40;;
54871;SDS011;43914;57.680;11.982;2024-02-21T12:58:46;8.80;;;4.20;;
54871;SDS011;43914;57.680;11.982;2024-02-21T13:01:11;14.30;;;4.70;;
54871;SDS011;43914;57.680;11.982;2024-02-21T13:03:37;11.50;;;4.40;;
54871;SDS011;43914;57.680;11.982;2024-02-21T13:06:03;13.70;;;6.20;;
54871;SDS011;43914;57.680;11.982;2024-02-21T13:08:29;13.60;;;7.00;;
54871;SDS011;43914;57.680;11.982;2024-02-21T13:10:54;14.30;;;6.50;;
54871;SDS011;43914;57.680;11.982;2024-02-21T13:13:20;11.60;;;5.90;;
54871;SDS011;43914;57.680;11.982;2024-02-21T13:15:46;13.20;;;5.90;;
54871;SDS011;43914;57.680;11.982;2024-02-21T13:18:12;14.70;;;5.50;;
54871;SDS011;43914;57.680;11.982;2024-02-21T13:20:37;14.70;;;4.60;;
54871;SDS011;43914;57.680;11.982;2024-02-21T13:23:04;9.60;;;4.70;;
54871;SDS011;43914;57.680;11.982;2024-02-21T13:25:29;8.40;;;3.40;;
54871;SDS011;43914;57.680;11.982;2024-02-21T13:27:55;8.50;;;3.10;;
54871;SDS011;43914;57.680;11.982;2024-02-21T13:30:21;9.00;;;2.90;;
54871;SDS011;43914;57.680;11.982;2024-02-21T13:32:47;8.90;;;3.00;;
54871;SDS011;43914;57.680;11.982;2024-02-21T13:35:13;8.60;;;2.80;;
54871;SDS011;43914;57.680;11.982;2024-02-21T13:37:40;7.70;;;2.70;;
54871;SDS011;43914;57.680;11.982;2024-02-21T13:40:06;7.10;;;2.40;;
54871;SDS011;43914;57.680;11.982;2024-02-21T13:42:39;8.30;;;2.10;;
54871;SDS011;43914;57.680;11.982;2024-02-21T13:45:05;9.30;;;2.50;;
54871;SDS011;43914;57.680;11.982;2024-02-21T13:47:32;8.30;;;2.50;;
54871;SDS011;43914;57.680;11.982;2024-02-21T13:50:06;6.80;;;2.00;;
54871;SDS011;43914;57.680;11.982;2024-02-21T13:52:36;8.90;;;2.50;;
54871;SDS011;43914;57.680;11.982;2024-02-21T13:55:02;8.20;;;2.10;;
54871;SDS011;43914;57.680;11.982;2024-02-21T13:57:28;9.30;;;2.00;;
54871;SDS011;43914;57.680;11.982;2024-02-21T13:59:54;8.10;;;2.10;;
54871;SDS011;43914;57.680;11.982;2024-02-21T14:02:19;11.30;;;2.80;;
54871;SDS011;43914;57.680;11.982;2024-02-21T14:04:46;9.50;;;1.80;;
54871;SDS011;43914;57.680;11.982;2024-02-21T14:07:12;8.90;;;1.60;;
54871;SDS011;43914;57.680;11.982;2024-02-21T14:09:38;6.00;;;1.40;;
54871;SDS011;43914;57.680;11.982;2024-02-21T14:12:03;5.80;;;1.20;;
54871;SDS011;43914;57.680;11.982;2024-02-21T14:14:33;8.80;;;1.60;;
54871;SDS011;43914;57.680;11.982;2024-02-21T14:17:00;7.10;;;1.30;;
54871;SDS011;43914;57.680;11.982;2024-02-21T14:19:26;6.90;;;1.40;;
54871;SDS011;43914;57.680;11.982;2024-02-21T14:21:52;7.10;;;1.20;;
54871;SDS011;43914;57.680;11.982;2024-02-21T14:24:18;6.70;;;1.20;;
54871;SDS011;43914;57.680;11.982;2024-02-21T14:26:43;8.70;;;1.40;;
54871;SDS011;43914;57.680;11.982;2024-02-21T14:29:08;9.10;;;1.30;;
54871;SDS011;43914;57.680;11.982;2024-02-21T14:31:35;7.50;;;1.40;;
54871;SDS011;43914;57.680;11.982;2024-02-21T14:34:00;12.80;;;2.00;;